sensor_id;sensor_type;location;lat;lon;timestamp;temperature;humidity
56426;DHT22;42330;43.620;3.856;2022-10-16T00:01:16;19.00;99.90
56426;DHT22;42330;43.620;3.856;2022-10-16T00:03:43;19.00;99.90
56426;DHT22;42330;43.620;3.856;2022-10-16T00:06:10;19.00;99.90
56426;DHT22;42330;43.620;3.856;2022-10-16T00:08:35;19.00;99.90
56426;DHT22;42330;43.620;3.856;2022-10-16T00:11:08;19.10;99.90
56426;DHT22;42330;43.620;3.856;2022-10-16T00:13:35;19.10;99.90
56426;DHT22;42330;43.620;3.856;2022-10-16T00:16:01;19.00;99.90
56426;DHT22;42330;43.620;3.856;2022-10-16T00:18:28;19.10;99.90
56426;DHT22;42330;43.620;3.856;2022-10-16T00:20:54;19.10;99.90
56426;DHT22;42330;43.620;3.856;2022-10-16T00:23:20;19.10;99.90
56426;DHT22;42330;43.620;3.856;2022-10-16T00:25:55;19.10;99.90
56426;DHT22;42330;43.620;3.856;2022-10-16T00:28:21;19.00;99.90
56426;DHT22;42330;43.620;3.856;2022-10-16T00:30:46;19.00;99.90
56426;DHT22;42330;43.620;3.856;2022-10-16T00:33:12;18.90;99.90
56426;DHT22;42330;43.620;3.856;2022-10-16T00:35:38;18.90;99.90
56426;DHT22;42330;43.620;3.856;2022-10-16T00:38:03;18.90;99.90
56426;DHT22;42330;43.620;3.856;2022-10-16T00:40:29;18.90;99.90
56426;DHT22;42330;43.620;3.856;2022-10-16T00:42:55;18.90;99.90
56426;DHT22;42330;43.620;3.856;2022-10-16T00:45:20;18.90;99.90
56426;DHT22;42330;43.620;3.856;2022-10-16T00:47:47;18.90;99.90
56426;DHT22;42330;43.620;3.856;2022-10-16T00:50:31;19.00;99.90
56426;DHT22;42330;43.620;3.856;2022-10-16T00:52:58;19.00;99.90
56426;DHT22;42330;43.620;3.856;2022-10-16T00:55:25;19.00;99.90
56426;DHT22;42330;43.620;3.856;2022-10-16T00:57:51;19.00;99.90
56426;DHT22;42330;43.620;3.856;2022-10-16T01:00:21;19.00;99.90
56426;DHT22;42330;43.620;3.856;2022-10-16T01:02:55;19.10;99.90
56426;DHT22;42330;43.620;3.856;2022-10-16T01:05:22;19.10;99.90
56426;DHT22;42330;43.620;3.856;2022-10-16T01:08:22;19.10;99.90
56426;DHT22;42330;43.620;3.856;2022-10-16T01:10:57;19.10;99.90
56426;DHT22;42330;43.620;3.856;2022-10-16T01:13:51;19.10;99.90
56426;DHT22;42330;43.620;3.856;2022-10-16T01:16:41;19.10;99.90
56426;DHT22;42330;43.620;3.856;2022-10-16T01:19:19;19.10;99.90
56426;DHT22;42330;43.620;3.856;2022-10-16T01:21:47;19.10;99.90
56426;DHT22;42330;43.620;3.856;2022-10-16T01:27:20;19.20;99.90
56426;DHT22;42330;43.620;3.856;2022-10-16T01:30:02;19.20;99.90
56426;DHT22;42330;43.620;3.856;2022-10-16T01:32:33;19.20;99.90
56426;DHT22;42330;43.620;3.856;2022-10-16T01:35:09;19.20;99.90
56426;DHT22;42330;43.620;3.856;2022-10-16T01:37:39;19.20;99.90
56426;DHT22;42330;43.620;3.856;2022-10-16T01:40:10;19.20;99.90
56426;DHT22;42330;43.620;3.856;2022-10-16T01:42:42;19.20;99.90
56426;DHT22;42330;43.620;3.856;2022-10-16T01:45:13;19.20;99.90
56426;DHT22;42330;43.620;3.856;2022-10-16T01:47:41;19.20;99.90
56426;DHT22;42330;43.620;3.856;2022-10-16T01:50:08;19.20;99.90
56426;DHT22;42330;43.620;3.856;2022-10-16T01:52:40;19.20;99.90
56426;DHT22;42330;43.620;3.856;2022-10-16T01:55:09;19.20;99.90
56426;DHT22;42330;43.620;3.856;2022-10-16T01:57:38;19.20;99.90
56426;DHT22;42330;43.620;3.856;2022-10-16T02:00:11;19.30;99.90
56426;DHT22;42330;43.620;3.856;2022-10-16T02:02:42;19.20;99.90
56426;DHT22;42330;43.620;3.856;2022-10-16T02:07:38;19.20;99.90
56426;DHT22;42330;43.620;3.856;2022-10-16T02:10:04;19.20;99.90
56426;DHT22;42330;43.620;3.856;2022-10-16T02:12:34;19.30;99.90
56426;DHT22;42330;43.620;3.856;2022-10-16T02:15:02;19.30;99.90
56426;DHT22;42330;43.620;3.856;2022-10-16T02:17:27;19.20;99.90
56426;DHT22;42330;43.620;3.856;2022-10-16T02:19:55;19.20;99.90
56426;DHT22;42330;43.620;3.856;2022-10-16T02:22:30;19.20;99.90
56426;DHT22;42330;43.620;3.856;2022-10-16T02:25:07;19.30;99.90
56426;DHT22;42330;43.620;3.856;2022-10-16T02:32:47;19.30;99.90
56426;DHT22;42330;43.620;3.856;2022-10-16T02:35:18;19.30;99.90
56426;DHT22;42330;43.620;3.856;2022-10-16T02:37:46;19.30;99.90
56426;DHT22;42330;43.620;3.856;2022-10-16T02:40:12;19.40;99.90
56426;DHT22;42330;43.620;3.856;2022-10-16T02:42:40;19.30;99.90
56426;DHT22;42330;43.620;3.856;2022-10-16T02:45:07;19.30;99.90
56426;DHT22;42330;43.620;3.856;2022-10-16T02:47:34;19.30;99.90
56426;DHT22;42330;43.620;3.856;2022-10-16T02:49:59;19.30;99.90
56426;DHT22;42330;43.620;3.856;2022-10-16T02:52:25;19.30;99.90
56426;DHT22;42330;43.620;3.856;2022-10-16T02:54:51;19.30;99.90
56426;DHT22;42330;43.620;3.856;2022-10-16T02:57:17;19.30;99.90
56426;DHT22;42330;43.620;3.856;2022-10-16T02:59:43;19.30;99.90
56426;DHT22;42330;43.620;3.856;2022-10-16T03:02:09;19.30;99.90
56426;DHT22;42330;43.620;3.856;2022-10-16T03:04:35;19.30;99.90
56426;DHT22;42330;43.620;3.856;2022-10-16T03:07:01;19.30;99.90
56426;DHT22;42330;43.620;3.856;2022-10-16T03:09:27;19.30;99.90
56426;DHT22;42330;43.620;3.856;2022-10-16T03:11:52;19.40;99.90
56426;DHT22;42330;43.620;3.856;2022-10-16T03:14:18;19.40;99.90
56426;DHT22;42330;43.620;3.856;2022-10-16T03:16:44;19.40;99.90
56426;DHT22;42330;43.620;3.856;2022-10-16T03:19:09;19.40;99.90
56426;DHT22;42330;43.620;3.856;2022-10-16T03:21:35;19.40;99.90
56426;DHT22;42330;43.620;3.856;2022-10-16T03:24:00;19.40;99.90
56426;DHT22;42330;43.620;3.856;2022-10-16T03:26:26;19.40;99.90
56426;DHT22;42330;43.620;3.856;2022-10-16T03:28:52;19.40;99.90
56426;DHT22;42330;43.620;3.856;2022-10-16T03:31:17;19.40;99.90
56426;DHT22;42330;43.620;3.856;2022-10-16T03:33:43;19.40;99.90
56426;DHT22;42330;43.620;3.856;2022-10-16T03:36:09;19.40;99.90
56426;DHT22;42330;43.620;3.856;2022-10-16T03:38:35;19.40;99.90
56426;DHT22;42330;43.620;3.856;2022-10-16T03:41:00;19.40;99.90
56426;DHT22;42330;43.620;3.856;2022-10-16T03:43:26;19.50;99.90
56426;DHT22;42330;43.620;3.856;2022-10-16T03:45:51;19.50;99.90
56426;DHT22;42330;43.620;3.856;2022-10-16T03:48:20;19.50;99.90
56426;DHT22;42330;43.620;3.856;2022-10-16T03:50:46;19.50;99.90
56426;DHT22;42330;43.620;3.856;2022-10-16T03:53:14;19.50;99.90
56426;DHT22;42330;43.620;3.856;2022-10-16T03:55:42;19.50;99.90
56426;DHT22;42330;43.620;3.856;2022-10-16T03:58:08;19.50;99.90
56426;DHT22;42330;43.620;3.856;2022-10-16T04:00:33;19.50;99.90
56426;DHT22;42330;43.620;3.856;2022-10-16T04:03:00;19.60;99.90
56426;DHT22;42330;43.620;3.856;2022-10-16T04:05:26;19.60;99.90
56426;DHT22;42330;43.620;3.856;2022-10-16T04:07:51;19.60;99.90
56426;DHT22;42330;43.620;3.856;2022-10-16T04:10:17;19.60;99.90
56426;DHT22;42330;43.620;3.856;2022-10-16T04:12:43;19.60;99.90
56426;DHT22;42330;43.620;3.856;2022-10-16T04:15:08;19.60;99.90
56426;DHT22;42330;43.620;3.856;2022-10-16T04:17:35;19.60;99.90
56426;DHT22;42330;43.620;3.856;2022-10-16T04:20:00;19.60;99.90
56426;DHT22;42330;43.620;3.856;2022-10-16T04:22:26;19.60;99.90
56426;DHT22;42330;43.620;3.856;2022-10-16T04:24:52;19.60;99.90
56426;DHT22;42330;43.620;3.856;2022-10-16T04:27:17;19.60;99.90
56426;DHT22;42330;43.620;3.856;2022-10-16T04:29:43;19.60;99.90
56426;DHT22;42330;43.620;3.856;2022-10-16T04:32:09;19.60;99.90
56426;DHT22;42330;43.620;3.856;2022-10-16T04:34:35;19.60;99.90
56426;DHT22;42330;43.620;3.856;2022-10-16T04:37:00;19.60;99.90
56426;DHT22;42330;43.620;3.856;2022-10-16T04:39:26;19.60;99.90
56426;DHT22;42330;43.620;3.856;2022-10-16T04:41:51;19.60;99.90
56426;DHT22;42330;43.620;3.856;2022-10-16T04:44:17;19.60;99.90
56426;DHT22;42330;43.620;3.856;2022-10-16T04:46:43;19.60;99.90
56426;DHT22;42330;43.620;3.856;2022-10-16T04:49:09;19.60;99.90
56426;DHT22;42330;43.620;3.856;2022-10-16T04:51:35;19.60;99.90
56426;DHT22;42330;43.620;3.856;2022-10-16T04:54:01;19.70;99.90
56426;DHT22;42330;43.620;3.856;2022-10-16T04:56:27;19.70;99.90
56426;DHT22;42330;43.620;3.856;2022-10-16T04:58:52;19.80;99.90
56426;DHT22;42330;43.620;3.856;2022-10-16T05:01:18;19.80;99.90
56426;DHT22;42330;43.620;3.856;2022-10-16T05:03:44;19.80;99.90
56426;DHT22;42330;43.620;3.856;2022-10-16T05:06:09;19.90;99.90
56426;DHT22;42330;43.620;3.856;2022-10-16T05:08:35;20.00;99.90
56426;DHT22;42330;43.620;3.856;2022-10-16T05:11:01;20.00;99.90
56426;DHT22;42330;43.620;3.856;2022-10-16T05:13:27;20.00;99.90
56426;DHT22;42330;43.620;3.856;2022-10-16T05:15:53;20.00;99.90
56426;DHT22;42330;43.620;3.856;2022-10-16T05:18:18;20.10;99.90
56426;DHT22;42330;43.620;3.856;2022-10-16T05:20:44;20.10;99.90
56426;DHT22;42330;43.620;3.856;2022-10-16T05:23:10;20.00;99.90
56426;DHT22;42330;43.620;3.856;2022-10-16T05:25:37;20.00;99.90
56426;DHT22;42330;43.620;3.856;2022-10-16T05:28:03;20.00;99.90
56426;DHT22;42330;43.620;3.856;2022-10-16T05:30:29;20.00;99.90
56426;DHT22;42330;43.620;3.856;2022-10-16T05:32:54;20.00;99.90
56426;DHT22;42330;43.620;3.856;2022-10-16T05:35:20;20.00;99.90
56426;DHT22;42330;43.620;3.856;2022-10-16T05:37:47;20.00;99.90
56426;DHT22;42330;43.620;3.856;2022-10-16T05:40:13;20.00;99.90
56426;DHT22;42330;43.620;3.856;2022-10-16T05:42:39;20.00;99.90
56426;DHT22;42330;43.620;3.856;2022-10-16T05:45:06;20.00;99.90
56426;DHT22;42330;43.620;3.856;2022-10-16T05:47:32;20.00;99.90
56426;DHT22;42330;43.620;3.856;2022-10-16T05:49:58;20.00;99.90
56426;DHT22;42330;43.620;3.856;2022-10-16T05:52:23;20.00;99.90
56426;DHT22;42330;43.620;3.856;2022-10-16T05:54:49;19.90;99.90
56426;DHT22;42330;43.620;3.856;2022-10-16T05:57:15;19.90;99.90
56426;DHT22;42330;43.620;3.856;2022-10-16T05:59:40;19.90;99.90
56426;DHT22;42330;43.620;3.856;2022-10-16T06:02:07;19.80;99.90
56426;DHT22;42330;43.620;3.856;2022-10-16T06:04:33;19.80;99.90
56426;DHT22;42330;43.620;3.856;2022-10-16T06:06:59;19.80;99.90
56426;DHT22;42330;43.620;3.856;2022-10-16T06:09:28;19.80;99.90
56426;DHT22;42330;43.620;3.856;2022-10-16T06:11:53;19.70;99.90
56426;DHT22;42330;43.620;3.856;2022-10-16T06:14:19;19.70;99.90
56426;DHT22;42330;43.620;3.856;2022-10-16T06:16:44;19.60;99.90
56426;DHT22;42330;43.620;3.856;2022-10-16T06:19:10;19.60;99.90
56426;DHT22;42330;43.620;3.856;2022-10-16T06:21:36;19.60;99.90
56426;DHT22;42330;43.620;3.856;2022-10-16T06:24:01;19.60;99.90
56426;DHT22;42330;43.620;3.856;2022-10-16T06:26:29;19.60;99.90
56426;DHT22;42330;43.620;3.856;2022-10-16T06:28:56;19.60;99.90
56426;DHT22;42330;43.620;3.856;2022-10-16T06:31:23;19.60;99.90
56426;DHT22;42330;43.620;3.856;2022-10-16T06:33:53;19.50;99.90
56426;DHT22;42330;43.620;3.856;2022-10-16T06:36:19;19.50;99.90
56426;DHT22;42330;43.620;3.856;2022-10-16T06:38:45;19.50;99.90
56426;DHT22;42330;43.620;3.856;2022-10-16T06:41:16;19.50;99.90
56426;DHT22;42330;43.620;3.856;2022-10-16T06:43:42;19.50;99.90
56426;DHT22;42330;43.620;3.856;2022-10-16T06:46:11;19.50;99.90
56426;DHT22;42330;43.620;3.856;2022-10-16T06:48:38;19.50;99.90
56426;DHT22;42330;43.620;3.856;2022-10-16T06:51:12;19.50;99.90
56426;DHT22;42330;43.620;3.856;2022-10-16T06:53:43;19.40;99.90
56426;DHT22;42330;43.620;3.856;2022-10-16T06:56:15;19.40;99.90
56426;DHT22;42330;43.620;3.856;2022-10-16T06:58:41;19.40;99.90
56426;DHT22;42330;43.620;3.856;2022-10-16T07:01:07;19.40;99.90
56426;DHT22;42330;43.620;3.856;2022-10-16T07:03:35;19.40;99.90
56426;DHT22;42330;43.620;3.856;2022-10-16T07:06:03;19.50;99.90
56426;DHT22;42330;43.620;3.856;2022-10-16T07:08:36;19.40;99.90
56426;DHT22;42330;43.620;3.856;2022-10-16T07:11:03;19.40;99.90
56426;DHT22;42330;43.620;3.856;2022-10-16T07:13:29;19.50;99.90
56426;DHT22;42330;43.620;3.856;2022-10-16T07:15:55;19.50;99.90
56426;DHT22;42330;43.620;3.856;2022-10-16T07:18:20;19.60;99.90
56426;DHT22;42330;43.620;3.856;2022-10-16T07:20:47;19.60;99.90
56426;DHT22;42330;43.620;3.856;2022-10-16T07:23:12;19.60;99.90
56426;DHT22;42330;43.620;3.856;2022-10-16T07:25:38;19.60;99.90
56426;DHT22;42330;43.620;3.856;2022-10-16T07:28:04;19.60;99.90
56426;DHT22;42330;43.620;3.856;2022-10-16T07:30:29;19.70;99.90
56426;DHT22;42330;43.620;3.856;2022-10-16T07:32:55;19.70;99.90
56426;DHT22;42330;43.620;3.856;2022-10-16T07:35:21;19.70;99.90
56426;DHT22;42330;43.620;3.856;2022-10-16T07:37:46;19.70;99.90
56426;DHT22;42330;43.620;3.856;2022-10-16T07:40:12;19.70;99.90
56426;DHT22;42330;43.620;3.856;2022-10-16T07:42:38;19.60;99.90
56426;DHT22;42330;43.620;3.856;2022-10-16T07:45:04;19.60;99.90
56426;DHT22;42330;43.620;3.856;2022-10-16T07:47:30;19.60;99.90
56426;DHT22;42330;43.620;3.856;2022-10-16T07:49:56;19.70;99.90
56426;DHT22;42330;43.620;3.856;2022-10-16T07:52:21;19.70;99.90
56426;DHT22;42330;43.620;3.856;2022-10-16T07:54:47;19.70;99.90
56426;DHT22;42330;43.620;3.856;2022-10-16T07:57:12;19.70;99.90
56426;DHT22;42330;43.620;3.856;2022-10-16T07:59:45;19.70;99.90
56426;DHT22;42330;43.620;3.856;2022-10-16T08:02:11;19.70;99.90
56426;DHT22;42330;43.620;3.856;2022-10-16T08:04:37;19.70;99.90
56426;DHT22;42330;43.620;3.856;2022-10-16T08:07:02;19.70;99.90
56426;DHT22;42330;43.620;3.856;2022-10-16T08:09:28;19.60;99.90
56426;DHT22;42330;43.620;3.856;2022-10-16T08:11:53;19.70;99.90
56426;DHT22;42330;43.620;3.856;2022-10-16T08:14:19;19.70;99.90
56426;DHT22;42330;43.620;3.856;2022-10-16T08:16:45;19.70;99.90
56426;DHT22;42330;43.620;3.856;2022-10-16T08:19:10;19.70;99.90
56426;DHT22;42330;43.620;3.856;2022-10-16T08:21:36;19.70;99.90
56426;DHT22;42330;43.620;3.856;2022-10-16T08:24:02;19.70;99.90
56426;DHT22;42330;43.620;3.856;2022-10-16T08:26:27;19.70;99.90
56426;DHT22;42330;43.620;3.856;2022-10-16T08:28:53;19.80;99.90
56426;DHT22;42330;43.620;3.856;2022-10-16T08:31:20;19.80;99.90
56426;DHT22;42330;43.620;3.856;2022-10-16T08:33:46;19.80;99.90
56426;DHT22;42330;43.620;3.856;2022-10-16T08:36:13;19.80;99.90
56426;DHT22;42330;43.620;3.856;2022-10-16T08:38:39;19.80;99.90
56426;DHT22;42330;43.620;3.856;2022-10-16T08:41:53;19.80;99.90
56426;DHT22;42330;43.620;3.856;2022-10-16T08:49:36;19.80;99.90
56426;DHT22;42330;43.620;3.856;2022-10-16T08:52:02;19.80;99.90
56426;DHT22;42330;43.620;3.856;2022-10-16T08:54:36;19.80;99.90
56426;DHT22;42330;43.620;3.856;2022-10-16T08:57:21;19.80;99.90
56426;DHT22;42330;43.620;3.856;2022-10-16T08:59:47;19.80;99.90
56426;DHT22;42330;43.620;3.856;2022-10-16T09:02:37;19.80;99.90
56426;DHT22;42330;43.620;3.856;2022-10-16T09:07:58;19.80;99.90
56426;DHT22;42330;43.620;3.856;2022-10-16T09:11:16;19.90;99.90
56426;DHT22;42330;43.620;3.856;2022-10-16T09:13:33;19.90;99.90
56426;DHT22;42330;43.620;3.856;2022-10-16T09:18:46;20.00;99.90
56426;DHT22;42330;43.620;3.856;2022-10-16T09:21:24;20.00;99.90
56426;DHT22;42330;43.620;3.856;2022-10-16T09:23:51;20.00;99.90
56426;DHT22;42330;43.620;3.856;2022-10-16T09:26:18;20.10;99.90
56426;DHT22;42330;43.620;3.856;2022-10-16T09:28:45;20.20;99.90
56426;DHT22;42330;43.620;3.856;2022-10-16T09:31:17;20.10;99.90
56426;DHT22;42330;43.620;3.856;2022-10-16T09:33:45;20.10;99.90
56426;DHT22;42330;43.620;3.856;2022-10-16T09:36:13;20.10;99.90
56426;DHT22;42330;43.620;3.856;2022-10-16T09:38:39;20.10;99.90
56426;DHT22;42330;43.620;3.856;2022-10-16T09:41:25;20.10;99.90
56426;DHT22;42330;43.620;3.856;2022-10-16T09:43:55;20.10;99.90
56426;DHT22;42330;43.620;3.856;2022-10-16T09:48:53;20.10;99.90
56426;DHT22;42330;43.620;3.856;2022-10-16T09:51:30;20.10;99.90
56426;DHT22;42330;43.620;3.856;2022-10-16T09:53:59;20.10;99.90
56426;DHT22;42330;43.620;3.856;2022-10-16T09:56:34;20.10;99.90
56426;DHT22;42330;43.620;3.856;2022-10-16T09:59:22;20.10;99.90
56426;DHT22;42330;43.620;3.856;2022-10-16T10:01:54;20.20;99.90
56426;DHT22;42330;43.620;3.856;2022-10-16T10:04:23;20.20;99.90
56426;DHT22;42330;43.620;3.856;2022-10-16T10:06:54;20.20;99.90
56426;DHT22;42330;43.620;3.856;2022-10-16T10:09:21;20.30;99.90
56426;DHT22;42330;43.620;3.856;2022-10-16T10:11:53;20.50;99.90
56426;DHT22;42330;43.620;3.856;2022-10-16T10:14:28;20.80;99.90
56426;DHT22;42330;43.620;3.856;2022-10-16T10:17:22;21.00;99.90
56426;DHT22;42330;43.620;3.856;2022-10-16T10:19:52;21.10;99.90
56426;DHT22;42330;43.620;3.856;2022-10-16T10:45:57;21.60;99.90
56426;DHT22;42330;43.620;3.856;2022-10-16T10:51:23;21.50;99.90
56426;DHT22;42330;43.620;3.856;2022-10-16T10:54:12;21.40;99.90
56426;DHT22;42330;43.620;3.856;2022-10-16T10:56:50;21.40;99.90
56426;DHT22;42330;43.620;3.856;2022-10-16T11:02:13;21.40;99.90
56426;DHT22;42330;43.620;3.856;2022-10-16T11:08:00;21.30;99.90
56426;DHT22;42330;43.620;3.856;2022-10-16T11:10:16;21.30;99.90
56426;DHT22;42330;43.620;3.856;2022-10-16T11:12:52;21.40;99.90
56426;DHT22;42330;43.620;3.856;2022-10-16T11:15:31;21.40;99.90
56426;DHT22;42330;43.620;3.856;2022-10-16T11:18:19;21.40;99.90
56426;DHT22;42330;43.620;3.856;2022-10-16T11:21:00;21.40;99.90
56426;DHT22;42330;43.620;3.856;2022-10-16T11:23:33;21.50;99.90
56426;DHT22;42330;43.620;3.856;2022-10-16T11:26:05;21.70;99.90
56426;DHT22;42330;43.620;3.856;2022-10-16T11:28:45;21.70;99.90
56426;DHT22;42330;43.620;3.856;2022-10-16T11:33:45;21.80;99.90
56426;DHT22;42330;43.620;3.856;2022-10-16T11:36:32;21.90;99.90
56426;DHT22;42330;43.620;3.856;2022-10-16T11:39:21;22.00;99.90
56426;DHT22;42330;43.620;3.856;2022-10-16T11:41:55;22.00;99.90
56426;DHT22;42330;43.620;3.856;2022-10-16T11:49:46;21.90;99.90
56426;DHT22;42330;43.620;3.856;2022-10-16T11:52:48;21.80;99.90
56426;DHT22;42330;43.620;3.856;2022-10-16T11:55:27;21.80;99.90
56426;DHT22;42330;43.620;3.856;2022-10-16T11:58:25;21.80;99.90
56426;DHT22;42330;43.620;3.856;2022-10-16T12:03:38;21.80;99.90
56426;DHT22;42330;43.620;3.856;2022-10-16T12:08:45;21.80;99.90
56426;DHT22;42330;43.620;3.856;2022-10-16T12:13:49;21.90;99.90
56426;DHT22;42330;43.620;3.856;2022-10-16T12:18:42;22.00;99.90
56426;DHT22;42330;43.620;3.856;2022-10-16T12:21:08;22.00;99.90
56426;DHT22;42330;43.620;3.856;2022-10-16T12:23:46;22.10;99.90
56426;DHT22;42330;43.620;3.856;2022-10-16T12:26:13;22.10;99.90
56426;DHT22;42330;43.620;3.856;2022-10-16T12:28:39;22.30;99.90
56426;DHT22;42330;43.620;3.856;2022-10-16T12:31:07;22.30;99.90
56426;DHT22;42330;43.620;3.856;2022-10-16T12:33:36;22.30;99.90
56426;DHT22;42330;43.620;3.856;2022-10-16T12:36:09;22.20;99.90
56426;DHT22;42330;43.620;3.856;2022-10-16T12:38:49;22.20;99.90
56426;DHT22;42330;43.620;3.856;2022-10-16T12:41:32;22.20;99.90
56426;DHT22;42330;43.620;3.856;2022-10-16T12:43:59;22.20;99.90
56426;DHT22;42330;43.620;3.856;2022-10-16T12:49:22;22.30;99.90
56426;DHT22;42330;43.620;3.856;2022-10-16T12:51:49;22.30;99.90
56426;DHT22;42330;43.620;3.856;2022-10-16T12:54:37;22.30;99.90
56426;DHT22;42330;43.620;3.856;2022-10-16T13:16:05;22.60;99.90
56426;DHT22;42330;43.620;3.856;2022-10-16T13:21:45;22.60;99.90
56426;DHT22;42330;43.620;3.856;2022-10-16T13:29:32;22.60;99.90
56426;DHT22;42330;43.620;3.856;2022-10-16T13:32:00;22.60;99.90
56426;DHT22;42330;43.620;3.856;2022-10-16T13:34:27;22.70;99.90
56426;DHT22;42330;43.620;3.856;2022-10-16T13:36:53;22.60;99.90
56426;DHT22;42330;43.620;3.856;2022-10-16T13:39:27;22.60;99.90
56426;DHT22;42330;43.620;3.856;2022-10-16T13:44:26;22.30;99.90
56426;DHT22;42330;43.620;3.856;2022-10-16T13:46:59;22.20;99.90
56426;DHT22;42330;43.620;3.856;2022-10-16T13:49:25;22.20;99.90
56426;DHT22;42330;43.620;3.856;2022-10-16T13:51:56;22.20;99.90
56426;DHT22;42330;43.620;3.856;2022-10-16T13:54:23;22.20;99.90
56426;DHT22;42330;43.620;3.856;2022-10-16T13:56:49;22.10;99.90
56426;DHT22;42330;43.620;3.856;2022-10-16T13:59:26;22.10;99.90
56426;DHT22;42330;43.620;3.856;2022-10-16T14:01:55;22.10;99.90
56426;DHT22;42330;43.620;3.856;2022-10-16T14:04:23;22.10;99.90
56426;DHT22;42330;43.620;3.856;2022-10-16T14:06:50;22.10;99.90
56426;DHT22;42330;43.620;3.856;2022-10-16T14:09:25;22.10;99.90
56426;DHT22;42330;43.620;3.856;2022-10-16T14:12:03;22.10;99.90
56426;DHT22;42330;43.620;3.856;2022-10-16T14:14:44;22.00;99.90
56426;DHT22;42330;43.620;3.856;2022-10-16T14:17:24;22.10;99.90
56426;DHT22;42330;43.620;3.856;2022-10-16T14:19:54;22.20;99.90
56426;DHT22;42330;43.620;3.856;2022-10-16T14:22:38;22.20;99.90
56426;DHT22;42330;43.620;3.856;2022-10-16T14:28:18;22.30;99.90
56426;DHT22;42330;43.620;3.856;2022-10-16T14:30:58;22.20;99.90
56426;DHT22;42330;43.620;3.856;2022-10-16T14:33:34;22.20;99.90
56426;DHT22;42330;43.620;3.856;2022-10-16T14:38:42;22.20;99.90
56426;DHT22;42330;43.620;3.856;2022-10-16T14:41:08;22.20;99.90
56426;DHT22;42330;43.620;3.856;2022-10-16T14:43:40;22.10;99.90
56426;DHT22;42330;43.620;3.856;2022-10-16T14:46:17;22.10;99.90
56426;DHT22;42330;43.620;3.856;2022-10-16T14:48:46;22.00;99.90
56426;DHT22;42330;43.620;3.856;2022-10-16T14:51:17;22.00;99.90
56426;DHT22;42330;43.620;3.856;2022-10-16T14:53:43;22.00;99.90
56426;DHT22;42330;43.620;3.856;2022-10-16T14:56:19;21.90;99.90
56426;DHT22;42330;43.620;3.856;2022-10-16T14:58:47;21.90;99.90
56426;DHT22;42330;43.620;3.856;2022-10-16T15:01:13;21.90;99.90
56426;DHT22;42330;43.620;3.856;2022-10-16T15:03:38;21.90;99.90
56426;DHT22;42330;43.620;3.856;2022-10-16T15:06:13;21.90;99.90
56426;DHT22;42330;43.620;3.856;2022-10-16T15:08:39;21.90;99.90
56426;DHT22;42330;43.620;3.856;2022-10-16T15:11:14;21.90;99.90
56426;DHT22;42330;43.620;3.856;2022-10-16T15:13:41;21.90;99.90
56426;DHT22;42330;43.620;3.856;2022-10-16T15:16:11;21.90;99.90
56426;DHT22;42330;43.620;3.856;2022-10-16T15:18:37;21.80;99.90
56426;DHT22;42330;43.620;3.856;2022-10-16T15:21:03;21.80;99.90
56426;DHT22;42330;43.620;3.856;2022-10-16T15:23:28;21.80;99.90
56426;DHT22;42330;43.620;3.856;2022-10-16T15:25:55;21.80;99.90
56426;DHT22;42330;43.620;3.856;2022-10-16T15:28:22;21.80;99.90
56426;DHT22;42330;43.620;3.856;2022-10-16T15:30:56;21.80;99.90
56426;DHT22;42330;43.620;3.856;2022-10-16T15:33:24;21.70;99.90
56426;DHT22;42330;43.620;3.856;2022-10-16T15:35:53;21.60;99.90
56426;DHT22;42330;43.620;3.856;2022-10-16T15:38:20;21.60;99.90
56426;DHT22;42330;43.620;3.856;2022-10-16T15:40:47;21.60;99.90
56426;DHT22;42330;43.620;3.856;2022-10-16T15:43:14;21.60;99.90
56426;DHT22;42330;43.620;3.856;2022-10-16T15:45:40;21.60;99.90
56426;DHT22;42330;43.620;3.856;2022-10-16T15:48:05;21.60;99.90
56426;DHT22;42330;43.620;3.856;2022-10-16T15:50:32;21.60;99.90
56426;DHT22;42330;43.620;3.856;2022-10-16T15:52:57;21.60;99.90
56426;DHT22;42330;43.620;3.856;2022-10-16T15:55:23;21.60;99.90
56426;DHT22;42330;43.620;3.856;2022-10-16T15:57:49;21.60;99.90
56426;DHT22;42330;43.620;3.856;2022-10-16T16:00:17;21.50;99.90
56426;DHT22;42330;43.620;3.856;2022-10-16T16:02:50;21.50;99.90
56426;DHT22;42330;43.620;3.856;2022-10-16T16:05:17;21.60;99.90
56426;DHT22;42330;43.620;3.856;2022-10-16T16:07:43;21.50;99.90
56426;DHT22;42330;43.620;3.856;2022-10-16T16:10:10;21.50;99.90
56426;DHT22;42330;43.620;3.856;2022-10-16T16:12:37;21.40;99.90
56426;DHT22;42330;43.620;3.856;2022-10-16T16:15:04;21.50;99.90
56426;DHT22;42330;43.620;3.856;2022-10-16T16:17:31;21.40;99.90
56426;DHT22;42330;43.620;3.856;2022-10-16T16:19:57;21.50;99.90
56426;DHT22;42330;43.620;3.856;2022-10-16T16:22:22;21.40;99.90
56426;DHT22;42330;43.620;3.856;2022-10-16T16:24:48;21.40;99.90
56426;DHT22;42330;43.620;3.856;2022-10-16T16:27:13;21.40;99.90
56426;DHT22;42330;43.620;3.856;2022-10-16T16:29:39;21.40;99.90
56426;DHT22;42330;43.620;3.856;2022-10-16T16:32:05;21.40;99.90
56426;DHT22;42330;43.620;3.856;2022-10-16T16:34:31;21.40;99.90
56426;DHT22;42330;43.620;3.856;2022-10-16T16:36:57;21.40;99.90
56426;DHT22;42330;43.620;3.856;2022-10-16T16:39:23;21.40;99.90
56426;DHT22;42330;43.620;3.856;2022-10-16T16:41:48;21.40;99.90
56426;DHT22;42330;43.620;3.856;2022-10-16T16:44:15;21.40;99.90
56426;DHT22;42330;43.620;3.856;2022-10-16T16:46:42;21.30;99.90
56426;DHT22;42330;43.620;3.856;2022-10-16T16:49:10;21.30;99.90
56426;DHT22;42330;43.620;3.856;2022-10-16T16:51:37;21.30;99.90
56426;DHT22;42330;43.620;3.856;2022-10-16T16:54:03;21.30;99.90
56426;DHT22;42330;43.620;3.856;2022-10-16T16:56:28;21.20;99.90
56426;DHT22;42330;43.620;3.856;2022-10-16T16:58:55;21.20;99.90
56426;DHT22;42330;43.620;3.856;2022-10-16T17:01:23;21.20;99.90
56426;DHT22;42330;43.620;3.856;2022-10-16T17:03:51;21.20;99.90
56426;DHT22;42330;43.620;3.856;2022-10-16T17:06:18;21.20;99.90
56426;DHT22;42330;43.620;3.856;2022-10-16T17:08:44;21.20;99.90
56426;DHT22;42330;43.620;3.856;2022-10-16T17:11:15;21.20;99.90
56426;DHT22;42330;43.620;3.856;2022-10-16T17:13:42;21.20;99.90
56426;DHT22;42330;43.620;3.856;2022-10-16T17:16:08;21.20;99.90
56426;DHT22;42330;43.620;3.856;2022-10-16T17:18:34;21.20;99.90
56426;DHT22;42330;43.620;3.856;2022-10-16T17:21:06;21.20;99.90
56426;DHT22;42330;43.620;3.856;2022-10-16T17:23:33;21.10;99.90
56426;DHT22;42330;43.620;3.856;2022-10-16T17:26:07;21.10;99.90
56426;DHT22;42330;43.620;3.856;2022-10-16T17:28:33;21.10;99.90
56426;DHT22;42330;43.620;3.856;2022-10-16T17:31:15;21.10;99.90
56426;DHT22;42330;43.620;3.856;2022-10-16T17:33:41;21.10;99.90
56426;DHT22;42330;43.620;3.856;2022-10-16T17:36:08;21.10;99.90